CST,Max TemperatureF,Mean TemperatureF,Min TemperatureF,Max Dew PointF,MeanDew PointF,Min DewpointF,Max Humidity, Mean Humidity, Min Humidity, Max Sea Level PressureIn, Mean Sea Level PressureIn, Min Sea Level PressureIn, Max VisibilityMiles, Mean VisibilityMiles, Min VisibilityMiles, Max Wind SpeedMPH, Mean Wind SpeedMPH, Max Gust SpeedMPH,PrecipitationIn, CloudCover, Events, WindDirDegrees
2011-11-1,59,50,41,42,35,31,68,57,48,30.00,29.88,29.83,10,10,10,17,5,22,0.00,3,Rain,352
2011-11-2,49,42,36,36,31,26,71,56,39,30.26,30.18,30.06,10,10,10,21,12,28,0.00,3,,330
2011-11-3,54,36,19,30,23,17,93,64,28,30.32,30.26,30.22,10,10,10,7,2,,0.00,0,,260
2011-11-4,55,39,23,32,24,17,78,55,28,30.23,30.15,30.01,10,10,10,20,5,26,0.00,0,,151
2011-11-5,60,50,39,44,38,32,86,70,44,30.01,29.79,29.63,10,10,10,24,12,36,0.00,1,,146
2011-11-6,52,46,40,45,37,25,82,66,45,29.93,29.67,29.52,10,10,10,24,13,33,0.00,3,Rain,197
2011-11-7,49,40,31,27,24,20,64,53,40,30.20,30.12,29.98,10,10,10,14,9,20,0.00,0,,251
2011-11-8,49,41,33,30,27,24,82,63,39,30.20,30.17,30.13,10,10,10,10,3,,0.00,1,,29
2011-11-9,49,38,28,30,26,22,82,63,42,30.14,30.07,30.02,10,10,10,24,7,34,0.00,0,,305
2011-11-10,41,32,23,29,25,17,79,67,50,30.08,30.04,29.98,10,10,10,20,13,28,0.00,5,,296
2011-11-11,57,43,29,27,23,18,71,50,31,29.92,29.68,29.57,10,10,10,14,5,20,0.00,2,,183
2011-11-12,64,46,29,38,28,21,73,51,25,29.56,29.42,29.23,10,10,10,21,6,30,0.00,0,,157
2011-11-13,46,42,39,37,31,27,74,63,56,29.40,29.27,29.16,10,10,10,18,9,24,0.00,6,,267
2011-11-14,54,42,30,33,27,22,81,59,31,29.54,29.45,29.41,10,10,10,23,9,33,0.00,1,,237
2011-11-15,51,37,23,32,22,15,79,58,39,29.92,29.68,29.49,10,10,10,30,8,38,0.00,1,,263
2011-11-16,36,28,21,21,17,13,75,61,48,30.14,30.05,29.95,10,10,10,23,13,31,0.00,3,,275
2011-11-17,34,22,10,14,10,7,86,61,36,30.18,30.10,29.88,10,10,10,14,7,17,0.00,0,,244
2011-11-18,49,40,32,30,25,18,75,56,45,29.71,29.64,29.57,10,10,10,12,7,17,0.00,3,,174
2011-11-19,33,30,26,28,24,19,93,76,64,29.93,29.79,29.75,10,7,1,17,12,28,0.00,5,,354
2011-11-20,24,14,3,17,11,0,89,80,66,30.36,30.29,30.18,10,10,10,14,5,,0.00,1,,297
2011-11-21,38,22,6,32,24,4,96,89,75,30.30,30.23,30.16,10,6,0,8,3,,0.00,6,Fog,140
2011-11-22,40,37,34,37,34,32,93,88,82,30.18,30.08,30.01,7,5,3,8,5,,0.00,8,,114
2011-11-23,44,36,29,39,34,28,97,91,77,30.09,30.05,30.00,5,3,0,12,3,,0.00,1,Fog,171
2011-11-24,60,47,34,45,38,32,93,77,52,29.96,29.80,29.68,10,8,5,14,7,17,0.00,0,,161
2011-11-25,52,42,31,47,39,31,95,87,78,29.67,29.64,29.60,10,9,7,10,3,,0.00,2,,150
2011-11-26,49,42,36,46,36,29,94,85,74,30.10,29.86,29.63,10,8,2,30,14,38,0.00,8,,294
2011-11-27,35,32,30,28,26,24,77,72,68,30.21,30.17,30.11,10,10,10,22,15,31,0.00,8,,317
2011-11-28,49,34,19,28,23,17,93,75,42,30.13,30.07,30.01,10,10,10,16,5,22,0.00,0,,182
2011-11-29,40,30,19,28,19,13,86,66,35,30.37,30.27,30.14,10,10,10,13,7,16,0.00,0,,323
2011-11-30,41,30,19,26,17,10,71,57,43,30.06,29.93,29.85,10,10,10,9,3,,0.00,4,,174